BLF1050 EGNT-ESMS
Flight info
| Callsign | BLF1050 |
|---|---|
| Flight time | 1h 44m |
| Altitude | 35000 |
| Route | GIRLI PELET SIVSU ASBIL TUDLO ROBUS DETUS |
| Aircraft | CRJ7/M-SDFGIRWY/S |
Departure
| Time | 2026-04-28 17:28 |
|---|---|
| Airport | Newcastle International Airport (EGNT) |
Arrival
| Time | 2026-04-28 19:13 |
|---|---|
| Airport | Malmö Sturup Airport (ESMS) |
| Time | Latitude | Longitude | Altitude | Speed | Heading |
|---|---|---|---|---|---|
| 2026-04-28 16:49 | 55.03656 | -1.70712 | 271 ft | 0 kts | 4° |
| 2026-04-28 16:55 | 55.03655 | -1.70712 | 272 ft | 0 kts | 4° |
| 2026-04-28 17:01 | 55.03655 | -1.70713 | 272 ft | 0 kts | 4° |
| 2026-04-28 17:02 | 55.03654 | -1.70713 | 272 ft | 0 kts | 4° |
| 2026-04-28 17:08 | 55.03653 | -1.70713 | 272 ft | 0 kts | 4° |
| 2026-04-28 17:15 | 55.03652 | -1.70713 | 272 ft | 0 kts | 4° |
| 2026-04-28 17:20 | 55.03622 | -1.70719 | 273 ft | 3 kts | 10° |
| 2026-04-28 17:20 | 55.03607 | -1.70727 | 273 ft | 2 kts | 30° |
| 2026-04-28 17:21 | 55.03599 | -1.70740 | 273 ft | 2 kts | 65° |
| 2026-04-28 17:21 | 55.03597 | -1.70759 | 273 ft | 2 kts | 88° |
| 2026-04-28 17:21 | 55.03597 | -1.70777 | 273 ft | 2 kts | 93° |
| 2026-04-28 17:22 | 55.03597 | -1.70787 | 273 ft | 0 kts | 94° |
| 2026-04-28 17:23 | 55.03597 | -1.70785 | 273 ft | 0 kts | 94° |
| 2026-04-28 17:24 | 55.03597 | -1.70784 | 273 ft | 1 kts | 94° |
| 2026-04-28 17:24 | 55.03596 | -1.70746 | 273 ft | 5 kts | 94° |
| 2026-04-28 17:24 | 55.03583 | -1.70666 | 273 ft | 8 kts | 140° |
| 2026-04-28 17:24 | 55.03511 | -1.70648 | 272 ft | 9 kts | 181° |
| 2026-04-28 17:25 | 55.03469 | -1.70650 | 272 ft | 2 kts | 182° |
| 2026-04-28 17:25 | 55.03458 | -1.70651 | 272 ft | 2 kts | 182° |
| 2026-04-28 17:25 | 55.03440 | -1.70652 | 272 ft | 3 kts | 182° |
| 2026-04-28 17:26 | 55.03414 | -1.70653 | 272 ft | 4 kts | 179° |
| 2026-04-28 17:26 | 55.03377 | -1.70616 | 272 ft | 8 kts | 114° |
| 2026-04-28 17:26 | 55.03389 | -1.70503 | 272 ft | 9 kts | 65° |
| 2026-04-28 17:26 | 55.03390 | -1.70497 | 271 ft | 0 kts | 65° |
| 2026-04-28 17:27 | 55.03391 | -1.70494 | 271 ft | 2 kts | 65° |
| 2026-04-28 17:27 | 55.03407 | -1.70434 | 271 ft | 17 kts | 65° |
| 2026-04-28 17:27 | 55.03564 | -1.69845 | 270 ft | 91 kts | 64° |
| 2026-04-28 17:27 | 55.03918 | -1.68490 | 261 ft | 151 kts | 66° |
| 2026-04-28 17:28 | 55.04340 | -1.66700 | 738 ft | 167 kts | 70° |
| 2026-04-28 17:28 | 55.05094 | -1.62782 | 2299 ft | 173 kts | 67° |
| 2026-04-28 17:28 | 55.05698 | -1.60967 | 3080 ft | 175 kts | 59° |
| 2026-04-28 17:29 | 55.06354 | -1.59118 | 3762 ft | 189 kts | 60° |
| 2026-04-28 17:29 | 55.06966 | -1.56968 | 4333 ft | 207 kts | 76° |
| 2026-04-28 17:29 | 55.06753 | -1.54458 | 5094 ft | 221 kts | 121° |
| 2026-04-28 17:30 | 55.03887 | -1.52644 | 6937 ft | 242 kts | 181° |
| 2026-04-28 17:30 | 55.00207 | -1.53159 | 7821 ft | 296 kts | 180° |
| 2026-04-28 17:30 | 54.98036 | -1.53343 | 7957 ft | 324 kts | 184° |
| 2026-04-28 17:31 | 54.95920 | -1.54575 | 8033 ft | 318 kts | 206° |
| 2026-04-28 17:31 | 54.92328 | -1.58355 | 8402 ft | 292 kts | 211° |
| 2026-04-28 17:32 | 54.88893 | -1.62146 | 8469 ft | 293 kts | 210° |
| 2026-04-28 17:32 | 54.87145 | -1.63977 | 8479 ft | 293 kts | 208° |
| 2026-04-28 17:32 | 54.85387 | -1.65789 | 8487 ft | 294 kts | 208° |
| 2026-04-28 17:32 | 54.83647 | -1.67573 | 8483 ft | 294 kts | 208° |
| 2026-04-28 17:33 | 54.81886 | -1.69378 | 8482 ft | 293 kts | 208° |
| 2026-04-28 17:33 | 54.80146 | -1.71159 | 8479 ft | 290 kts | 208° |
| 2026-04-28 17:33 | 54.78412 | -1.72936 | 8479 ft | 290 kts | 208° |
| 2026-04-28 17:33 | 54.77823 | -1.73536 | 8480 ft | 290 kts | 208° |
| 2026-04-28 17:34 | 54.74793 | -1.75693 | 8473 ft | 281 kts | 175° |
| 2026-04-28 17:34 | 54.72976 | -1.74824 | 8483 ft | 268 kts | 142° |
| 2026-04-28 17:34 | 54.71812 | -1.72460 | 8497 ft | 256 kts | 110° |
| 2026-04-28 17:34 | 54.71304 | -1.69518 | 8498 ft | 255 kts | 98° |
| 2026-04-28 17:35 | 54.71135 | -1.66482 | 8497 ft | 254 kts | 89° |
| 2026-04-28 17:35 | 54.71157 | -1.63428 | 8493 ft | 257 kts | 86° |
| 2026-04-28 17:35 | 54.71246 | -1.60193 | 8991 ft | 269 kts | 85° |
| 2026-04-28 17:35 | 54.71339 | -1.57011 | 10291 ft | 263 kts | 86° |
| 2026-04-28 17:36 | 54.71398 | -1.53824 | 11080 ft | 270 kts | 86° |
| 2026-04-28 17:36 | 54.71435 | -1.50432 | 11284 ft | 292 kts | 87° |
| 2026-04-28 17:36 | 54.71473 | -1.46802 | 11569 ft | 311 kts | 88° |
| 2026-04-28 17:36 | 54.71503 | -1.42993 | 12059 ft | 320 kts | 87° |
| 2026-04-28 17:37 | 54.71530 | -1.39115 | 12720 ft | 324 kts | 87° |
| 2026-04-28 17:37 | 54.71556 | -1.35216 | 13415 ft | 326 kts | 87° |
| 2026-04-28 17:37 | 54.71583 | -1.31283 | 14074 ft | 328 kts | 87° |
| 2026-04-28 17:37 | 54.71608 | -1.27319 | 14695 ft | 331 kts | 86° |
| 2026-04-28 17:38 | 54.71631 | -1.23319 | 15322 ft | 333 kts | 87° |
| 2026-04-28 17:38 | 54.71654 | -1.19293 | 15909 ft | 336 kts | 86° |
| 2026-04-28 17:38 | 54.71676 | -1.15290 | 16500 ft | 338 kts | 86° |
| 2026-04-28 17:38 | 54.71689 | -1.12544 | 16882 ft | 340 kts | 86° |
| 2026-04-28 17:39 | 54.71704 | -1.08444 | 17440 ft | 342 kts | 86° |
| 2026-04-28 17:39 | 54.71730 | -1.02978 | 18159 ft | 345 kts | 86° |
| 2026-04-28 17:39 | 54.71762 | -0.94635 | 19197 ft | 349 kts | 86° |
| 2026-04-28 17:40 | 54.71775 | -0.90431 | 19700 ft | 351 kts | 86° |
| 2026-04-28 17:40 | 54.71784 | -0.87571 | 20018 ft | 352 kts | 86° |
| 2026-04-28 17:40 | 54.71797 | -0.83326 | 20469 ft | 355 kts | 86° |
| 2026-04-28 17:40 | 54.71806 | -0.79047 | 20926 ft | 357 kts | 86° |
| 2026-04-28 17:41 | 54.71815 | -0.74738 | 21350 ft | 359 kts | 86° |
| 2026-04-28 17:41 | 54.71820 | -0.70409 | 21770 ft | 361 kts | 86° |
| 2026-04-28 17:41 | 54.71826 | -0.66110 | 22178 ft | 363 kts | 86° |
| 2026-04-28 17:41 | 54.71830 | -0.61736 | 22572 ft | 364 kts | 86° |
| 2026-04-28 17:42 | 54.71830 | -0.57346 | 22946 ft | 366 kts | 86° |
| 2026-04-28 17:42 | 54.71833 | -0.52926 | 23322 ft | 368 kts | 86° |
| 2026-04-28 17:42 | 54.71831 | -0.48483 | 23683 ft | 370 kts | 86° |
| 2026-04-28 17:42 | 54.71830 | -0.44022 | 24031 ft | 372 kts | 86° |
| 2026-04-28 17:43 | 54.71826 | -0.39540 | 24367 ft | 374 kts | 86° |
| 2026-04-28 17:43 | 54.71820 | -0.35037 | 24685 ft | 375 kts | 86° |
| 2026-04-28 17:43 | 54.71811 | -0.30497 | 24984 ft | 378 kts | 86° |
| 2026-04-28 17:43 | 54.71803 | -0.25942 | 25283 ft | 380 kts | 86° |
| 2026-04-28 17:44 | 54.71790 | -0.21364 | 25586 ft | 381 kts | 86° |
| 2026-04-28 17:44 | 54.71780 | -0.16768 | 25862 ft | 383 kts | 86° |
| 2026-04-28 17:44 | 54.71763 | -0.12152 | 26154 ft | 384 kts | 86° |
| 2026-04-28 17:44 | 54.71746 | -0.07520 | 26414 ft | 386 kts | 86° |
| 2026-04-28 17:45 | 54.71731 | -0.02866 | 26675 ft | 388 kts | 86° |
| 2026-04-28 17:45 | 54.71707 | 0.01797 | 26954 ft | 389 kts | 86° |
| 2026-04-28 17:45 | 54.71686 | 0.06467 | 27270 ft | 388 kts | 86° |
| 2026-04-28 17:45 | 54.71660 | 0.11138 | 27523 ft | 388 kts | 86° |
| 2026-04-28 17:46 | 54.71637 | 0.15824 | 27732 ft | 390 kts | 86° |
| 2026-04-28 17:46 | 54.71608 | 0.20522 | 27974 ft | 390 kts | 86° |
| 2026-04-28 17:46 | 54.71579 | 0.25152 | 28243 ft | 390 kts | 86° |
| 2026-04-28 17:46 | 54.71547 | 0.29829 | 28523 ft | 389 kts | 86° |
| 2026-04-28 17:47 | 54.71516 | 0.34500 | 28815 ft | 388 kts | 86° |
| 2026-04-28 17:47 | 54.71482 | 0.39153 | 29101 ft | 386 kts | 86° |
| 2026-04-28 17:47 | 54.71443 | 0.43796 | 29331 ft | 386 kts | 86° |
| 2026-04-28 17:47 | 54.71417 | 0.46866 | 29513 ft | 385 kts | 86° |
| 2026-04-28 17:48 | 54.71364 | 0.53043 | 29876 ft | 383 kts | 86° |
| 2026-04-28 17:48 | 54.71323 | 0.57638 | 30148 ft | 381 kts | 86° |
| 2026-04-28 17:48 | 54.71282 | 0.62208 | 30419 ft | 379 kts | 86° |
| 2026-04-28 17:48 | 54.71236 | 0.66752 | 30689 ft | 377 kts | 86° |
| 2026-04-28 17:49 | 54.71189 | 0.71293 | 30959 ft | 375 kts | 86° |
| 2026-04-28 17:49 | 54.71141 | 0.75788 | 31227 ft | 373 kts | 85° |
| 2026-04-28 17:49 | 54.71093 | 0.80257 | 31495 ft | 370 kts | 85° |
| 2026-04-28 17:49 | 54.71045 | 0.84692 | 31763 ft | 368 kts | 85° |
| 2026-04-28 17:50 | 54.70995 | 0.89099 | 32030 ft | 365 kts | 85° |
| 2026-04-28 17:50 | 54.70940 | 0.93473 | 32298 ft | 362 kts | 85° |
| 2026-04-28 17:50 | 54.70886 | 0.97755 | 32563 ft | 359 kts | 85° |
| 2026-04-28 17:50 | 54.70831 | 1.02111 | 32834 ft | 356 kts | 85° |
| 2026-04-28 17:51 | 54.70776 | 1.06359 | 33101 ft | 352 kts | 85° |
| 2026-04-28 17:51 | 54.70718 | 1.10569 | 33368 ft | 348 kts | 85° |
| 2026-04-28 17:51 | 54.70659 | 1.14686 | 33632 ft | 345 kts | 85° |
| 2026-04-28 17:51 | 54.70597 | 1.18803 | 33903 ft | 340 kts | 85° |
| 2026-04-28 17:52 | 54.70531 | 1.22862 | 34163 ft | 336 kts | 85° |
| 2026-04-28 17:52 | 54.70460 | 1.26868 | 34426 ft | 331 kts | 85° |
| 2026-04-28 17:52 | 54.70312 | 1.34708 | 34907 ft | 321 kts | 85° |
| 2026-04-28 17:53 | 54.70250 | 1.38543 | 35119 ft | 317 kts | 85° |
| 2026-04-28 17:53 | 54.70190 | 1.42333 | 35288 ft | 315 kts | 85° |
| 2026-04-28 17:53 | 54.70068 | 1.49906 | 35404 ft | 316 kts | 85° |
| 2026-04-28 17:54 | 54.69941 | 1.57550 | 35435 ft | 320 kts | 85° |
| 2026-04-28 17:54 | 54.69801 | 1.65303 | 35446 ft | 325 kts | 85° |
| 2026-04-28 17:55 | 54.69660 | 1.73172 | 35451 ft | 330 kts | 85° |
| 2026-04-28 17:55 | 54.69506 | 1.81172 | 35454 ft | 336 kts | 85° |
| 2026-04-28 17:56 | 54.69351 | 1.89292 | 35454 ft | 341 kts | 85° |
| 2026-04-28 17:56 | 54.69181 | 1.97554 | 35449 ft | 347 kts | 86° |
| 2026-04-28 17:57 | 54.69008 | 2.05907 | 35445 ft | 353 kts | 86° |
| 2026-04-28 17:57 | 54.68820 | 2.14457 | 35443 ft | 358 kts | 86° |
| 2026-04-28 17:58 | 54.68630 | 2.23123 | 35442 ft | 364 kts | 86° |
| 2026-04-28 17:58 | 54.68425 | 2.31921 | 35441 ft | 369 kts | 86° |
| 2026-04-28 17:59 | 54.68215 | 2.40852 | 35440 ft | 374 kts | 86° |
| 2026-04-28 17:59 | 54.68018 | 2.49905 | 35439 ft | 380 kts | 86° |
| 2026-04-28 18:00 | 54.67790 | 2.59089 | 35438 ft | 385 kts | 86° |
| 2026-04-28 18:00 | 54.67540 | 2.68395 | 35438 ft | 390 kts | 87° |
| 2026-04-28 18:01 | 54.67287 | 2.77832 | 35437 ft | 396 kts | 87° |
| 2026-04-28 18:01 | 54.67027 | 2.87391 | 35436 ft | 401 kts | 87° |
| 2026-04-28 18:02 | 54.66751 | 2.97057 | 35435 ft | 405 kts | 87° |
| 2026-04-28 18:02 | 54.66467 | 3.06777 | 35433 ft | 410 kts | 87° |
| 2026-04-28 18:03 | 54.66174 | 3.16669 | 35432 ft | 414 kts | 87° |
| 2026-04-28 18:03 | 54.65865 | 3.26605 | 35430 ft | 413 kts | 87° |
| 2026-04-28 18:04 | 54.65549 | 3.36466 | 35428 ft | 410 kts | 87° |
| 2026-04-28 18:04 | 54.66049 | 3.46090 | 35430 ft | 399 kts | 76° |
| 2026-04-28 18:05 | 54.67004 | 3.53827 | 35432 ft | 393 kts | 70° |
| 2026-04-28 18:05 | 54.68863 | 3.64347 | 35435 ft | 390 kts | 68° |
| 2026-04-28 18:06 | 54.70379 | 3.73284 | 35435 ft | 389 kts | 69° |
| 2026-04-28 18:06 | 54.71852 | 3.82276 | 35436 ft | 387 kts | 70° |
| 2026-04-28 18:07 | 54.73313 | 3.91238 | 35436 ft | 386 kts | 70° |
| 2026-04-28 18:07 | 54.74757 | 4.00163 | 35436 ft | 385 kts | 70° |
| 2026-04-28 18:08 | 54.76192 | 4.09067 | 35432 ft | 383 kts | 70° |
| 2026-04-28 18:08 | 54.77615 | 4.17931 | 35428 ft | 382 kts | 69° |
| 2026-04-28 18:09 | 54.79028 | 4.26788 | 35427 ft | 381 kts | 70° |
| 2026-04-28 18:09 | 54.80428 | 4.35622 | 35427 ft | 379 kts | 70° |
| 2026-04-28 18:10 | 54.81818 | 4.44427 | 35428 ft | 378 kts | 70° |
| 2026-04-28 18:10 | 54.83198 | 4.53209 | 35429 ft | 377 kts | 70° |
| 2026-04-28 18:11 | 54.84566 | 4.61966 | 35429 ft | 375 kts | 70° |
| 2026-04-28 18:11 | 54.85928 | 4.70729 | 35430 ft | 377 kts | 70° |
| 2026-04-28 18:12 | 54.87289 | 4.79543 | 35431 ft | 379 kts | 70° |
| 2026-04-28 18:12 | 54.88652 | 4.88406 | 35432 ft | 381 kts | 70° |
| 2026-04-28 18:13 | 54.90004 | 4.97252 | 35432 ft | 382 kts | 70° |
| 2026-04-28 18:13 | 54.91366 | 5.06195 | 35432 ft | 384 kts | 70° |
| 2026-04-28 18:14 | 54.92726 | 5.15185 | 35432 ft | 385 kts | 70° |
| 2026-04-28 18:14 | 54.94082 | 5.24222 | 35433 ft | 387 kts | 70° |
| 2026-04-28 18:15 | 54.95442 | 5.33311 | 35432 ft | 389 kts | 70° |
| 2026-04-28 18:15 | 54.96802 | 5.42435 | 35432 ft | 390 kts | 70° |
| 2026-04-28 18:16 | 54.98152 | 5.51578 | 35432 ft | 391 kts | 70° |
| 2026-04-28 18:16 | 54.99503 | 5.60775 | 35432 ft | 392 kts | 70° |
| 2026-04-28 18:17 | 55.00849 | 5.70002 | 35432 ft | 393 kts | 70° |
| 2026-04-28 18:17 | 55.02195 | 5.79258 | 35429 ft | 395 kts | 70° |
| 2026-04-28 18:18 | 55.03538 | 5.88550 | 35424 ft | 395 kts | 70° |
| 2026-04-28 18:18 | 55.04655 | 5.96336 | 35422 ft | 395 kts | 70° |
| 2026-04-28 18:19 | 55.06194 | 6.07136 | 35420 ft | 395 kts | 70° |
| 2026-04-28 18:19 | 55.07514 | 6.16431 | 35420 ft | 395 kts | 70° |
| 2026-04-28 18:20 | 55.08828 | 6.25736 | 35420 ft | 395 kts | 70° |
| 2026-04-28 18:20 | 55.10133 | 6.35054 | 35211 ft | 395 kts | 70° |
| 2026-04-28 18:21 | 55.10780 | 6.39699 | 34895 ft | 393 kts | 70° |
| 2026-04-28 18:21 | 55.11423 | 6.44325 | 34546 ft | 391 kts | 70° |
| 2026-04-28 18:21 | 55.12059 | 6.48928 | 34200 ft | 389 kts | 70° |
| 2026-04-28 18:21 | 55.12693 | 6.53506 | 33851 ft | 387 kts | 70° |
| 2026-04-28 18:22 | 55.13318 | 6.58063 | 33604 ft | 383 kts | 70° |
| 2026-04-28 18:22 | 55.13932 | 6.62551 | 33491 ft | 376 kts | 70° |
| 2026-04-28 18:22 | 55.15130 | 6.71313 | 33416 ft | 371 kts | 70° |
| 2026-04-28 18:23 | 55.16343 | 6.80206 | 33411 ft | 380 kts | 70° |
| 2026-04-28 18:23 | 55.17570 | 6.89274 | 33415 ft | 387 kts | 70° |
| 2026-04-28 18:24 | 55.18392 | 6.95390 | 33409 ft | 392 kts | 70° |
| 2026-04-28 18:24 | 55.20064 | 7.07901 | 33410 ft | 396 kts | 71° |
| 2026-04-28 18:25 | 55.21104 | 7.15740 | 33409 ft | 398 kts | 71° |
| 2026-04-28 18:26 | 55.22974 | 7.29943 | 33410 ft | 400 kts | 71° |
| 2026-04-28 18:26 | 55.24221 | 7.39470 | 33399 ft | 402 kts | 71° |
| 2026-04-28 18:27 | 55.25463 | 7.49045 | 33408 ft | 404 kts | 71° |
| 2026-04-28 18:27 | 55.26700 | 7.58660 | 33399 ft | 404 kts | 71° |
| 2026-04-28 18:28 | 55.27935 | 7.68292 | 33398 ft | 406 kts | 71° |
| 2026-04-28 18:28 | 55.29162 | 7.77940 | 33401 ft | 404 kts | 71° |
| 2026-04-28 18:29 | 55.30378 | 7.87564 | 33405 ft | 403 kts | 71° |
| 2026-04-28 18:29 | 55.31579 | 7.97142 | 33401 ft | 400 kts | 71° |
| 2026-04-28 18:30 | 55.32759 | 8.06629 | 33394 ft | 396 kts | 71° |
| 2026-04-28 18:30 | 55.33924 | 8.16046 | 33393 ft | 393 kts | 71° |
| 2026-04-28 18:31 | 55.35066 | 8.25332 | 33397 ft | 390 kts | 71° |
| 2026-04-28 18:31 | 55.36202 | 8.34633 | 33399 ft | 389 kts | 71° |
| 2026-04-28 18:32 | 55.37330 | 8.43926 | 33404 ft | 389 kts | 71° |
| 2026-04-28 18:32 | 55.38451 | 8.53224 | 33402 ft | 389 kts | 71° |
| 2026-04-28 18:33 | 55.39563 | 8.62532 | 33404 ft | 389 kts | 71° |
| 2026-04-28 18:33 | 55.40674 | 8.71885 | 33405 ft | 391 kts | 71° |
| 2026-04-28 18:34 | 55.41782 | 8.81283 | 33408 ft | 394 kts | 72° |
| 2026-04-28 18:34 | 55.42892 | 8.90765 | 33402 ft | 397 kts | 72° |
| 2026-04-28 18:35 | 55.44004 | 9.00328 | 33402 ft | 401 kts | 72° |
| 2026-04-28 18:35 | 55.45114 | 9.09951 | 33406 ft | 400 kts | 72° |
| 2026-04-28 18:36 | 55.46201 | 9.19531 | 33404 ft | 400 kts | 75° |
| 2026-04-28 18:36 | 55.46302 | 9.24476 | 33410 ft | 408 kts | 86° |
| 2026-04-28 18:36 | 55.46094 | 9.29477 | 33409 ft | 409 kts | 87° |
| 2026-04-28 18:37 | 55.45623 | 9.39456 | 33407 ft | 409 kts | 89° |
| 2026-04-28 18:37 | 55.44453 | 9.49303 | 33411 ft | 416 kts | 98° |
| 2026-04-28 18:38 | 55.42918 | 9.59122 | 33400 ft | 415 kts | 97° |
| 2026-04-28 18:38 | 55.41516 | 9.68936 | 33408 ft | 413 kts | 96° |
| 2026-04-28 18:39 | 55.40120 | 9.78756 | 33406 ft | 414 kts | 96° |
| 2026-04-28 18:39 | 55.38712 | 9.88611 | 33414 ft | 417 kts | 96° |
| 2026-04-28 18:40 | 55.37288 | 9.98513 | 33410 ft | 418 kts | 97° |
| 2026-04-28 18:40 | 55.35860 | 10.08442 | 33421 ft | 420 kts | 97° |
| 2026-04-28 18:41 | 55.34414 | 10.18395 | 33424 ft | 421 kts | 97° |
| 2026-04-28 18:41 | 55.32953 | 10.28378 | 33423 ft | 423 kts | 97° |
| 2026-04-28 18:42 | 55.31477 | 10.38406 | 33426 ft | 424 kts | 97° |
| 2026-04-28 18:42 | 55.29990 | 10.48454 | 33426 ft | 426 kts | 97° |
| 2026-04-28 18:43 | 55.28489 | 10.58523 | 33425 ft | 426 kts | 97° |
| 2026-04-28 18:43 | 55.26989 | 10.68493 | 33283 ft | 421 kts | 97° |
| 2026-04-28 18:43 | 55.26246 | 10.73483 | 32988 ft | 425 kts | 97° |
| 2026-04-28 18:44 | 55.25499 | 10.78447 | 32655 ft | 428 kts | 97° |
| 2026-04-28 18:44 | 55.23964 | 10.88501 | 31913 ft | 426 kts | 97° |
| 2026-04-28 18:44 | 55.23198 | 10.93516 | 31541 ft | 425 kts | 97° |
| 2026-04-28 18:45 | 55.22434 | 10.98505 | 31170 ft | 423 kts | 97° |
| 2026-04-28 18:45 | 55.21672 | 11.03461 | 30717 ft | 420 kts | 97° |
| 2026-04-28 18:45 | 55.20910 | 11.08399 | 30220 ft | 418 kts | 97° |
| 2026-04-28 18:45 | 55.20157 | 11.13305 | 29716 ft | 415 kts | 97° |
| 2026-04-28 18:46 | 55.19402 | 11.18170 | 29217 ft | 412 kts | 98° |
| 2026-04-28 18:46 | 55.18651 | 11.22991 | 28717 ft | 409 kts | 98° |
| 2026-04-28 18:46 | 55.17906 | 11.27777 | 28216 ft | 406 kts | 98° |
| 2026-04-28 18:46 | 55.17168 | 11.32521 | 27716 ft | 403 kts | 98° |
| 2026-04-28 18:47 | 55.16430 | 11.37227 | 27214 ft | 400 kts | 98° |
| 2026-04-28 18:47 | 55.15694 | 11.41901 | 26713 ft | 397 kts | 98° |
| 2026-04-28 18:47 | 55.14968 | 11.46553 | 26211 ft | 395 kts | 99° |
| 2026-04-28 18:47 | 55.14239 | 11.51174 | 25710 ft | 394 kts | 99° |
| 2026-04-28 18:48 | 55.13507 | 11.55773 | 25209 ft | 392 kts | 99° |
| 2026-04-28 18:48 | 55.12775 | 11.60359 | 24707 ft | 391 kts | 100° |
| 2026-04-28 18:48 | 55.12047 | 11.64923 | 24207 ft | 390 kts | 100° |
| 2026-04-28 18:48 | 55.11320 | 11.69475 | 23712 ft | 388 kts | 100° |
| 2026-04-28 18:49 | 55.10711 | 11.74048 | 23206 ft | 384 kts | 94° |
| 2026-04-28 18:49 | 55.10584 | 11.75537 | 23052 ft | 382 kts | 92° |
| 2026-04-28 18:49 | 55.10188 | 11.83238 | 22213 ft | 379 kts | 89° |
| 2026-04-28 18:49 | 55.09977 | 11.87821 | 21716 ft | 379 kts | 90° |
| 2026-04-28 18:50 | 55.09711 | 11.92402 | 21216 ft | 377 kts | 91° |
| 2026-04-28 18:50 | 55.09424 | 11.96923 | 20720 ft | 373 kts | 91° |
| 2026-04-28 18:50 | 55.09132 | 12.01412 | 20219 ft | 370 kts | 91° |
| 2026-04-28 18:50 | 55.08851 | 12.05794 | 19723 ft | 367 kts | 91° |
| 2026-04-28 18:51 | 55.08562 | 12.10203 | 19224 ft | 364 kts | 91° |
| 2026-04-28 18:51 | 55.08277 | 12.14579 | 18723 ft | 362 kts | 91° |
| 2026-04-28 18:51 | 55.07989 | 12.18932 | 18222 ft | 360 kts | 91° |
| 2026-04-28 18:51 | 55.07702 | 12.23250 | 17721 ft | 358 kts | 91° |
| 2026-04-28 18:52 | 55.07414 | 12.27553 | 17220 ft | 356 kts | 91° |
| 2026-04-28 18:52 | 55.07124 | 12.31843 | 16715 ft | 354 kts | 91° |
| 2026-04-28 18:52 | 55.06838 | 12.36093 | 16218 ft | 352 kts | 91° |
| 2026-04-28 18:52 | 55.06552 | 12.40321 | 15716 ft | 349 kts | 91° |
| 2026-04-28 18:53 | 55.06268 | 12.44497 | 15210 ft | 343 kts | 91° |
| 2026-04-28 18:53 | 55.05984 | 12.48601 | 14705 ft | 338 kts | 91° |
| 2026-04-28 18:53 | 55.05705 | 12.52648 | 14203 ft | 334 kts | 91° |
| 2026-04-28 18:53 | 55.05428 | 12.56638 | 13720 ft | 329 kts | 91° |
| 2026-04-28 18:54 | 55.05153 | 12.60564 | 13243 ft | 324 kts | 91° |
| 2026-04-28 18:54 | 55.04886 | 12.64424 | 12762 ft | 319 kts | 91° |
| 2026-04-28 18:54 | 55.04617 | 12.68238 | 12281 ft | 314 kts | 91° |
| 2026-04-28 18:54 | 55.04351 | 12.72000 | 11801 ft | 310 kts | 91° |
| 2026-04-28 18:55 | 55.04089 | 12.75718 | 11321 ft | 307 kts | 91° |
| 2026-04-28 18:55 | 55.03917 | 12.78157 | 11012 ft | 305 kts | 92° |
| 2026-04-28 18:55 | 55.03567 | 12.82950 | 10647 ft | 291 kts | 92° |
| 2026-04-28 18:55 | 55.03320 | 12.86403 | 10388 ft | 283 kts | 92° |
| 2026-04-28 18:56 | 55.03081 | 12.89711 | 10132 ft | 277 kts | 92° |
| 2026-04-28 18:56 | 55.02840 | 12.93058 | 9875 ft | 280 kts | 92° |
| 2026-04-28 18:56 | 55.02829 | 12.96410 | 9615 ft | 273 kts | 71° |
| 2026-04-28 18:56 | 55.03783 | 12.99126 | 9488 ft | 261 kts | 39° |
| 2026-04-28 18:57 | 55.05247 | 13.00985 | 9422 ft | 254 kts | 30° |
| 2026-04-28 18:57 | 55.06800 | 13.02275 | 9430 ft | 249 kts | 18° |
| 2026-04-28 18:57 | 55.08494 | 13.03104 | 9448 ft | 250 kts | 13° |
| 2026-04-28 18:57 | 55.10207 | 13.03791 | 9336 ft | 256 kts | 12° |
| 2026-04-28 18:58 | 55.11947 | 13.04508 | 9146 ft | 263 kts | 13° |
| 2026-04-28 18:58 | 55.13714 | 13.05300 | 8957 ft | 260 kts | 14° |
| 2026-04-28 18:58 | 55.15445 | 13.06111 | 8756 ft | 255 kts | 14° |
| 2026-04-28 18:58 | 55.17149 | 13.06907 | 8550 ft | 251 kts | 14° |
| 2026-04-28 18:59 | 55.18826 | 13.07704 | 8350 ft | 248 kts | 15° |
| 2026-04-28 18:59 | 55.20483 | 13.08506 | 8143 ft | 247 kts | 14° |
| 2026-04-28 18:59 | 55.22146 | 13.09293 | 7941 ft | 248 kts | 14° |
| 2026-04-28 18:59 | 55.23807 | 13.10072 | 7740 ft | 247 kts | 14° |
| 2026-04-28 19:00 | 55.25475 | 13.10741 | 7538 ft | 246 kts | 9° |
| 2026-04-28 19:00 | 55.27171 | 13.11146 | 7338 ft | 246 kts | 6° |
| 2026-04-28 19:00 | 55.28867 | 13.11456 | 7131 ft | 245 kts | 6° |
| 2026-04-28 19:00 | 55.30562 | 13.11762 | 6935 ft | 244 kts | 6° |
| 2026-04-28 19:01 | 55.32253 | 13.12105 | 6734 ft | 244 kts | 7° |
| 2026-04-28 19:01 | 55.33934 | 13.12485 | 6535 ft | 244 kts | 7° |
| 2026-04-28 19:01 | 55.35617 | 13.12862 | 6333 ft | 244 kts | 7° |
| 2026-04-28 19:01 | 55.37298 | 13.13238 | 6132 ft | 243 kts | 7° |
| 2026-04-28 19:02 | 55.38975 | 13.13614 | 5931 ft | 243 kts | 7° |
| 2026-04-28 19:02 | 55.40645 | 13.13994 | 5729 ft | 242 kts | 7° |
| 2026-04-28 19:02 | 55.42311 | 13.14366 | 5527 ft | 241 kts | 7° |
| 2026-04-28 19:02 | 55.43972 | 13.14738 | 5323 ft | 240 kts | 7° |
| 2026-04-28 19:03 | 55.45628 | 13.15114 | 5125 ft | 240 kts | 7° |
| 2026-04-28 19:03 | 55.47284 | 13.15487 | 4924 ft | 239 kts | 8° |
| 2026-04-28 19:03 | 55.48937 | 13.15857 | 4724 ft | 239 kts | 8° |
| 2026-04-28 19:03 | 55.50580 | 13.16229 | 4523 ft | 238 kts | 8° |
| 2026-04-28 19:04 | 55.52216 | 13.16600 | 4323 ft | 237 kts | 8° |
| 2026-04-28 19:04 | 55.53850 | 13.16958 | 4122 ft | 236 kts | 8° |
| 2026-04-28 19:04 | 55.55478 | 13.17330 | 3920 ft | 235 kts | 8° |
| 2026-04-28 19:04 | 55.57101 | 13.17703 | 3720 ft | 234 kts | 8° |
| 2026-04-28 19:05 | 55.58691 | 13.18070 | 3520 ft | 233 kts | 8° |
| 2026-04-28 19:05 | 55.60297 | 13.18433 | 3331 ft | 231 kts | 8° |
| 2026-04-28 19:05 | 55.61884 | 13.18794 | 3178 ft | 229 kts | 8° |
| 2026-04-28 19:05 | 55.63457 | 13.19155 | 3021 ft | 228 kts | 8° |
| 2026-04-28 19:06 | 55.65050 | 13.19515 | 2869 ft | 233 kts | 9° |
| 2026-04-28 19:06 | 55.66142 | 13.19767 | 2771 ft | 235 kts | 8° |
| 2026-04-28 19:06 | 55.68296 | 13.20257 | 2616 ft | 235 kts | 9° |
| 2026-04-28 19:06 | 55.69922 | 13.20655 | 2574 ft | 235 kts | 9° |
| 2026-04-28 19:07 | 55.71437 | 13.21601 | 2551 ft | 231 kts | 33° |
| 2026-04-28 19:07 | 55.72760 | 13.23269 | 2548 ft | 236 kts | 38° |
| 2026-04-28 19:07 | 55.73898 | 13.25315 | 2536 ft | 232 kts | 64° |
| 2026-04-28 19:07 | 55.74107 | 13.28015 | 2548 ft | 220 kts | 105° |
| 2026-04-28 19:08 | 55.73461 | 13.30395 | 2551 ft | 211 kts | 122° |
| 2026-04-28 19:08 | 55.72610 | 13.32463 | 2542 ft | 204 kts | 134° |
| 2026-04-28 19:08 | 55.71533 | 13.34004 | 2529 ft | 194 kts | 154° |
| 2026-04-28 19:08 | 55.70264 | 13.34493 | 2524 ft | 183 kts | 173° |
| 2026-04-28 19:09 | 55.69009 | 13.34699 | 2534 ft | 179 kts | 176° |
| 2026-04-28 19:09 | 55.67773 | 13.34806 | 2530 ft | 176 kts | 176° |
| 2026-04-28 19:09 | 55.66572 | 13.34948 | 2524 ft | 167 kts | 174° |
| 2026-04-28 19:09 | 55.65817 | 13.35073 | 2455 ft | 166 kts | 173° |
| 2026-04-28 19:10 | 55.64700 | 13.35297 | 2218 ft | 157 kts | 172° |
| 2026-04-28 19:10 | 55.63622 | 13.35536 | 1997 ft | 158 kts | 172° |
| 2026-04-28 19:10 | 55.62218 | 13.35843 | 1711 ft | 147 kts | 172° |
| 2026-04-28 19:10 | 55.61219 | 13.36054 | 1499 ft | 144 kts | 173° |
| 2026-04-28 19:11 | 55.60200 | 13.36264 | 1298 ft | 148 kts | 173° |
| 2026-04-28 19:11 | 55.59510 | 13.36407 | 1163 ft | 147 kts | 173° |
| 2026-04-28 19:11 | 55.58510 | 13.36614 | 965 ft | 143 kts | 173° |
| 2026-04-28 19:11 | 55.57533 | 13.36816 | 778 ft | 140 kts | 173° |
| 2026-04-28 19:12 | 55.56544 | 13.37015 | 596 ft | 145 kts | 173° |
| 2026-04-28 19:12 | 55.55549 | 13.37220 | 409 ft | 146 kts | 173° |
| 2026-04-28 19:12 | 55.54569 | 13.37431 | 242 ft | 132 kts | 174° |
| 2026-04-28 19:12 | 55.54445 | 13.37452 | 233 ft | 126 kts | 174° |
| 2026-04-28 19:13 | 55.53789 | 13.37596 | 238 ft | 85 kts | 173° |
| 2026-04-28 19:13 | 55.53339 | 13.37682 | 237 ft | 48 kts | 172° |
| 2026-04-28 19:13 | 55.53083 | 13.37736 | 239 ft | 25 kts | 172° |
| 2026-04-28 19:13 | 55.52988 | 13.37713 | 238 ft | 12 kts | 238° |
| 2026-04-28 19:14 | 55.52971 | 13.37541 | 233 ft | 11 kts | 264° |
| 2026-04-28 19:14 | 55.52988 | 13.37467 | 230 ft | 0 kts | 329° |
| 2026-04-28 19:14 | 55.52990 | 13.37465 | 230 ft | 1 kts | 332° |
| 2026-04-28 19:14 | 55.53000 | 13.37459 | 230 ft | 2 kts | 342° |
| 2026-04-28 19:15 | 55.53022 | 13.37449 | 230 ft | 4 kts | 350° |
| 2026-04-28 19:15 | 55.53064 | 13.37443 | 232 ft | 8 kts | 354° |
| 2026-04-28 19:15 | 55.53138 | 13.37429 | 230 ft | 13 kts | 354° |
| 2026-04-28 19:15 | 55.53204 | 13.37414 | 230 ft | 16 kts | 352° |
| 2026-04-28 19:16 | 55.53377 | 13.37378 | 230 ft | 19 kts | 353° |
| 2026-04-28 19:16 | 55.53508 | 13.37350 | 229 ft | 18 kts | 354° |
| 2026-04-28 19:16 | 55.53637 | 13.37324 | 230 ft | 18 kts | 352° |
| 2026-04-28 19:16 | 55.53763 | 13.37299 | 230 ft | 19 kts | 353° |
| 2026-04-28 19:17 | 55.53881 | 13.37274 | 230 ft | 15 kts | 353° |
| 2026-04-28 19:17 | 55.53938 | 13.37258 | 232 ft | 6 kts | 333° |
| 2026-04-28 19:17 | 55.53963 | 13.37174 | 229 ft | 10 kts | 268° |
| 2026-04-28 19:17 | 55.53955 | 13.37042 | 229 ft | 8 kts | 263° |
| 2026-04-28 19:18 | 55.53987 | 13.36976 | 229 ft | 10 kts | 351° |
| 2026-04-28 19:18 | 55.54026 | 13.36966 | 229 ft | 0 kts | 353° |